Tiempo atmosférico en la estación meteorológica de La Oliva, Las Palmas (217 m.)



Fecha
DESCASC
Temp. máxima en grados centígrados (hora)
DESCASC
Temp. mínima en grados centígrados (hora)
DESCASC
Temp. media en grados centígrados
DESCASC
Racha de viento máxima en m/sg (hora)
DESCASC
Velocidad máxima media en intervalos de 10 minutos(hora)
DESCASC
Precipitaciones diarias en mm
DESCASC
Precipitaciones de 00:00 a 06:00 en mm
DESCASC
Precipitaciones de 06:00 a 12:00 en mm
DESCASC
Precipitaciones de 12:00 a 18:00 en mm
DESCASC
Precipitaciones de 18:00 a 24:00 en mm
DESCASC
20-09-2020 28 (17:00) 16.7 (07:30) 22.4 9.17 (00:20) 5.83 (00:20) 0 0 0 0 0
19-09-2020 25.3 (15:10) 18.4 (07:40) 21.8 10.56 (18:20) 6.94 (10:20) 0 0 0 0 0
18-09-2020 26.3 (15:50) 19.9 (05:10) 23.1 9.44 (17:20) 4.72 (16:00) 0 0 0 0 0
17-09-2020 26.4 (16:40) 20.5 (00:00) 23.4 9.72 (18:30) 6.11 (18:20) 0 0 0 0 0
16-09-2020 30.1 (15:20) 21 (00:00) 25.6 10.83 (04:00) 7.22 (04:00) 0 0 0 0 0
15-09-2020 25.9 (16:10) 20.5 (00:00) 23.2 10.83 (05:10) 7.22 (07:20) 0 0 0 0 0
14-09-2020 26.9 (14:30) 19.5 (00:00) 23.2 8.61 (16:00) 4.72 (16:10) 0 0 0 0 0
13-09-2020 26.4 (18:00) 19.2 (00:00) 22.8 8.06 (12:50) 5 (12:50) 0 0 0 0 0
12-09-2020 26.9 (16:10) 19.8 (00:00) 23.3 8.33 (14:00) 3.89 (14:00) 0 0 0 0 0
11-09-2020 25.4 (16:10) 20.2 (00:00) 22.8 11.67 (11:50) 5 (16:50) 0 0 0 0 0
10-09-2020 26.6 (13:10) 20 (00:00) 23.3 8.89 (09:30) 5 (13:30) 0 0 0 0 0
09-09-2020 31.7 (15:20) 21 (00:00) 26.4 10.28 (16:00) 6.11 (16:00) 0 0 0 0 0
08-09-2020 33.9 (14:10) 22.3 (00:00) 28.1 10.83 (12:00) 6.94 (12:40) 0 0 0 0 0
07-09-2020 31.9 (17:10) 20.4 (05:40) 26.1 8.61 (01:00) 6.39 (00:50) 0 0 0 0 0
06-09-2020 27.9 (15:50) 18.5 (00:00) 23.2 6.94 (13:10) 4.72 (23:20) 0 0 0 0 0
05-09-2020 27.6 (14:30) 18.3 (00:00) 22.9 8.89 (16:00) 4.72 (15:30) 0 0 0 0 0
04-09-2020 26.8 (14:30) 18 (00:00) 22.4 7.5 (15:20) 4.17 (16:50) 0 0 0 0 0
03-09-2020 25.8 (15:00) 19.9 (00:00) 22.8 7.22 (13:00) 4.17 (09:40) 0 0 0 0 0
02-09-2020 27.8 (16:20) 20.1 (00:00) 23.9 11.11 (14:00) 6.67 (14:00) 0 0 0 0 0
01-09-2020 28.7 (17:00) 17.7 (00:00) 23.2 10 (15:40) 4.17 (15:50) 0 0 0 0 0
31-08-2020 23.9 (16:10) 19.9 (00:00) 21.9 10.28 (15:40) 5.28 (12:40) 0 0 0 0 0
30-08-2020 24.8 (15:00) 19.4 (00:00) 22.1 13.61 (17:00) 7.5 (12:10) 0 0 0 0 0
29-08-2020 25 (13:30) 20.4 (00:00) 22.7 12.78 (16:30) 7.5 (16:30) 0 0 0 0 0
28-08-2020 31.6 (15:40) 21.1 (00:00) 26.4 12.22 (02:00) 8.33 (01:20) 0 0 0 0 0
27-08-2020 36.8 (14:40) 23.6 (00:00) 30.2 12.22 (16:50) 8.33 (16:50) 0 0 0 0 0
26-08-2020 39.8 (15:40) 26.4 (00:00) 33.1 8.61 (10:30) 5.83 (10:40) 0.2 0 0.2 0 0
25-08-2020 31.8 (15:30) 20.5 (00:00) 26.1 11.11 (23:30) 7.22 (23:30) 0 0 0 0 0
24-08-2020 29.7 (14:30) 20 (00:00) 24.9 11.94 (14:10) 6.94 (14:20) 0 0 0 0 0
23-08-2020 29.6 (15:40) 20.7 (00:00) 25.2 9.17 (19:20) 5 (18:20) 0 0 0 0 0
22-08-2020 32.8 (15:40) 19.3 (00:00) 26 10.83 (11:20) 6.67 (12:50) 0 0 0 0 0

Gráficas

Temp. máximas Temp. mínimas Temp. medias Precipitaciones Rachas de viento máximas Velocidades máximas media en intervalos de 10 minutos

Datos horarios

Fecha y hora oficial Temperatura (ºC) Velocidad del viento (km/h) Dirección del viento Racha (km/h) Dirección de racha Precipitación (mm) Presión (hPa) Tendencia (hPa) Humedad (%)
2020-09-20 23:00:00 21.1 8 Noroeste 14 Noroeste 0 -- -- 88
2020-09-20 22:00:00 21.5 2 Noroeste 6 Noroeste 0 -- -- 83
2020-09-20 21:00:00 22.1 5 Oeste 12 Noroeste 0 -- -- 82
2020-09-20 20:00:00 22.9 6 Norte 19 Noroeste 0 -- -- 79
2020-09-20 19:00:00 25.4 11 Norte 20 Norte 0 -- -- 68
2020-09-20 18:00:00 27.3 10 Norte 24 Nordeste 0 -- -- 62
2020-09-20 17:00:00 28 11 Nordeste 27 Nordeste 0 -- -- 54
2020-09-20 16:00:00 27.7 12 Nordeste 29 Nordeste 0 -- -- 56
2020-09-20 15:00:00 27 15 Nordeste 26 Este 0 -- -- 53
2020-09-20 14:00:00 27.3 14 Este 27 Nordeste 0 -- -- 52
2020-09-20 13:00:00 26.9 11 Nordeste 26 Este 0 -- -- 52
2020-09-20 12:00:00 25.4 16 Este 26 Este 0 -- -- 55
2020-09-20 11:00:00 23.6 15 Nordeste 26 Nordeste 0 -- -- 65
2020-09-20 10:00:00 22.1 15 Este 25 Este 0 -- -- 74
2020-09-20 09:00:00 20.3 11 Este 24 Este 0 -- -- 82
2020-09-20 08:00:00 16.9 5 Este 9 Este 0 -- -- 91
2020-09-20 07:00:00 17 3 Este 4 Este 0 -- -- 89
2020-09-20 06:00:00 17.6 4 Nordeste 6 Este 0 -- -- 87
2020-09-20 05:00:00 18.7 3 Nordeste 8 Este 0 -- -- 87
2020-09-20 04:00:00 19 5 Este 17 Este 0 -- -- 87
2020-09-20 03:00:00 19.5 6 Este 19 Este 0 -- -- 85
2020-09-20 02:00:00 19.8 12 Este 28 Este 0 -- -- 86
2020-09-20 01:00:00 20.1 19 Este 33 Este 0 -- -- 84
2020-09-20 00:00:00 20.2 17 Este 28 Este 0 -- -- 81
2020-09-19 23:00:00 20.1 13 Nordeste 19 Nordeste 0 -- -- 83
2020-09-19 22:00:00 20.6 12 Nordeste 26 Este 0 -- -- 80
2020-09-19 21:00:00 20.9 14 Nordeste 32 Nordeste 0 -- -- 80
2020-09-19 20:00:00 21.7 18 Nordeste 30 Este 0 -- -- 74
2020-09-19 19:00:00 23.4 17 Nordeste 38 Este 0 -- -- 66
2020-09-19 18:00:00 23.9 18 Nordeste 34 Nordeste 0 -- -- 65
2020-09-19 17:00:00 24.4 19 Nordeste 33 Nordeste 0 -- -- 64
2020-09-19 16:00:00 24.8 20 Nordeste 37 Este 0 -- -- 61
2020-09-19 15:00:00 25 20 Nordeste 35 Este 0 -- -- 61
2020-09-19 14:00:00 25.2 21 Este 35 Este 0 -- -- 61
2020-09-19 13:00:00 24.6 21 Nordeste 37 Este 0 -- -- 63
2020-09-19 12:00:00 23.4 22 Nordeste 35 Este 0 -- -- 66
2020-09-19 11:00:00 22.6 22 Este 36 Este 0 -- -- 69
2020-09-19 10:00:00 21.7 19 Nordeste 35 Nordeste 0 -- -- 73
2020-09-19 09:00:00 19.9 14 Este 23 Este 0 -- -- 82
2020-09-19 08:00:00 18.4 6 Este 14 Nordeste 0 -- -- 87
2020-09-19 07:00:00 18.8 9 Nordeste 20 Este 0 -- -- 85
2020-09-19 06:00:00 18.8 10 Nordeste 18 Nordeste 0 -- -- 86
2020-09-19 05:00:00 19 13 Este 19 Este 0 -- -- 83
2020-09-19 04:00:00 18.9 8 Nordeste 19 Nordeste 0 -- -- 84
2020-09-19 03:00:00 19 9 Este 14 Este 0 -- -- 84
2020-09-19 02:00:00 19.2 5 Nordeste 13 Nordeste 0 -- -- 80
2020-09-19 01:00:00 19.8 9 Nordeste 13 Este 0 -- -- 82
2020-09-19 00:00:00 20 7 Nordeste 17 Norte 0 -- -- 82
2020-09-18 23:00:00 20.5 9 Nordeste 20 Norte 0 -- -- 81
2020-09-18 22:00:00 20.8 11 Norte 26 Norte 0 -- -- 80
2020-09-18 21:00:00 21.3 11 Norte 23 Norte 0 -- -- 77
2020-09-18 20:00:00 22 13 Norte 27 Norte 0 -- -- 74
2020-09-18 19:00:00 23.8 13 Norte 26 Noroeste 0 -- -- 62
2020-09-18 18:00:00 25 12 Norte 34 Noroeste 0 -- -- 55
2020-09-18 17:00:00 25.5 12 Norte 28 Norte 0 -- -- 56
2020-09-18 16:00:00 26.2 17 Norte 32 Norte 0 -- -- 59
2020-09-18 15:00:00 26 12 Norte 28 Norte 0 -- -- 57
2020-09-18 14:00:00 25.8 14 Norte 27 Norte 0 -- -- 58
2020-09-18 13:00:00 25.7 12 Norte 24 Norte 0 -- -- 58
2020-09-18 12:00:00 24 12 Norte 23 Norte 0 -- -- 64
2020-09-18 11:00:00 23.4 12 Nordeste 22 Nordeste 0 -- -- 68
2020-09-18 10:00:00 21.7 11 Norte 19 Norte 0 -- -- 75
2020-09-18 09:00:00 20.5 4 Nordeste 7 Nordeste 0 -- -- 83
2020-09-18 08:00:00 19.9 3 Nordeste 10 Norte 0 -- -- 84
2020-09-18 07:00:00 20.2 6 Norte 17 Norte 0 -- -- 83
2020-09-18 06:00:00 20.2 7 Norte 15 Norte 0 -- -- 82
2020-09-18 05:00:00 20 3 Norte 12 Norte 0 -- -- 82
2020-09-18 04:00:00 20.2 7 Norte 14 Norte 0 -- -- 82
2020-09-18 03:00:00 20.3 5 Norte 14 Norte 0 -- -- 84
2020-09-18 02:00:00 20.2 5 Norte 12 Norte 0 -- -- 82
2020-09-18 01:00:00 20.4 4 Norte 13 Norte 0 -- -- 81
2020-09-18 00:00:00 20.5 6 Noroeste 13 Norte 0 -- -- 80
2020-09-17 23:00:00 20.8 7 Norte 22 Norte 0 -- -- 81
2020-09-17 22:00:00 21 10 Noroeste 24 Noroeste 0 -- -- 82
2020-09-17 21:00:00 21.2 15 Noroeste 30 Noroeste 0 -- -- 83
2020-09-17 20:00:00 21.6 19 Noroeste 33 Noroeste 0 -- -- 82
2020-09-17 19:00:00 22.6 19 Noroeste 35 Noroeste 0 -- -- 77
2020-09-17 18:00:00 24.2 17 Noroeste 33 Noroeste 0 -- -- 70
2020-09-17 17:00:00 26 20 Noroeste 33 Noroeste 0 -- -- 65
2020-09-17 16:00:00 25.5 18 Noroeste 30 Noroeste 0 -- -- 67
2020-09-17 15:00:00 25.3 9 Noroeste 21 Norte 0 -- -- 70
2020-09-17 14:00:00 25 12 Noroeste 25 Noroeste 0 -- -- 72
2020-09-17 13:00:00 24.1 8 Norte 23 Noroeste 0 -- -- 75
2020-09-17 12:00:00 23.6 9 Noroeste 24 Noroeste 0 -- -- 78
2020-09-17 11:00:00 23.3 15 Noroeste 27 Noroeste 0 -- -- 79
2020-09-17 10:00:00 23 9 Noroeste 18 Noroeste 0 -- -- 77
2020-09-17 09:00:00 22 8 Noroeste 14 Noroeste 0 -- -- 71
2020-09-17 08:00:00 20.8 4 Sudoeste 10 Oeste 0 -- -- 73
2020-09-17 07:00:00 21 0 Calma 10 Noroeste 0 -- -- 78
2020-09-17 06:00:00 21.6 8 Oeste 12 Oeste 0 -- -- 81
2020-09-17 05:00:00 22 3 Sudoeste 8 Nordeste 0 -- -- 84
2020-09-17 04:00:00 22.1 5 Norte 23 Norte 0 -- -- 86
2020-09-17 03:00:00 22.7 0 Calma 18 Noroeste 0 -- -- 83
2020-09-17 02:00:00 23.4 6 Norte 26 Noroeste 0 -- -- 79
2020-09-17 01:00:00 24.5 6 Sudeste 17 Este 0 -- -- 52
2020-09-17 00:00:00 25.3 8 Este 22 Este 0 -- -- 37
2020-09-16 23:00:00 25.9 9 Este 27 Este 0 -- -- 37
2020-09-16 22:00:00 25.7 6 Este 16 Nordeste 0 -- -- 36
2020-09-16 21:00:00 26.4 6 Sudeste 18 Este 0 -- -- 32
2020-09-16 20:00:00 26.8 11 Este 17 Este 0 -- -- 34
2020-09-16 19:00:00 27.9 9 Este 16 Este 0 -- -- 30
2020-09-16 18:00:00 28.1 9 Nordeste 22 Nordeste 0 -- -- 32
2020-09-16 17:00:00 29.1 13 Nordeste 32 Este 0 -- -- 31
2020-09-16 16:00:00 29.9 17 Este 31 Este 0 -- -- 24
2020-09-16 15:00:00 29.9 14 Este 28 Este 0 -- -- 27
2020-09-16 14:00:00 27.4 18 Este 24 Este 0 -- -- 37
2020-09-16 13:00:00 27.5 12 Sudeste 28 Este 0 -- -- 34
2020-09-16 12:00:00 28.7 13 Nordeste 24 Nordeste 0 -- -- 25
2020-09-16 11:00:00 25.9 9 Este 18 Este 0 -- -- 39
2020-09-16 10:00:00 22.5 6 Este 20 Este 0 -- -- 71
2020-09-16 09:00:00 21.5 7 Nordeste 13 Nordeste 0 -- -- 82
2020-09-16 08:00:00 21.2 2 Oeste 13 Noroeste 0 -- -- 88
2020-09-16 07:00:00 21.1 6 Noroeste 26 Este 0 -- -- 84
2020-09-16 06:00:00 21.3 19 Nordeste 32 Nordeste 0 -- -- 80
2020-09-16 05:00:00 21.8 22 Este 37 Este 0 -- -- 74
2020-09-16 04:00:00 21.8 26 Este 39 Nordeste 0 -- -- 75
2020-09-16 03:00:00 21.3 18 Este 27 Este 0 -- -- 82
2020-09-16 02:00:00 21.3 10 Sudeste 17 Nordeste 0 -- -- 81
2020-09-16 01:00:00 21.3 13 Norte 26 Norte 0 -- -- 85
2020-09-16 00:00:00 21.5 12 Norte 29 Norte 0 -- -- 84
2020-09-15 23:00:00 21.5 14 Norte 26 Norte 0 -- -- 86
2020-09-15 22:00:00 22 6 Noroeste 17 Norte 0 -- -- 82
2020-09-15 21:00:00 22.3 10 Este 24 Sudeste 0 -- -- 77
2020-09-15 20:00:00 22.8 16 Sudeste 27 Este 0 -- -- 76
2020-09-15 19:00:00 22.9 14 Nordeste 23 Este 0 -- -- 76
2020-09-15 18:00:00 23.8 15 Nordeste 39 Este 0 -- -- 67
2020-09-15 17:00:00 25 22 Este 35 Este 0 -- -- 65
2020-09-15 16:00:00 25.6 18 Nordeste 30 Este 0 -- -- 61
2020-09-15 15:00:00 25 19 Este 31 Este 0 -- -- 63
2020-09-15 14:00:00 23.4 21 Este 32 Nordeste 0 -- -- 70
2020-09-15 13:00:00 25 14 Este 27 Este 0 -- -- 62
2020-09-15 12:00:00 24.2 16 Nordeste 31 Nordeste 0 -- -- 66
2020-09-15 11:00:00 22.4 13 Nordeste 28 Nordeste 0 -- -- 76
2020-09-15 10:00:00 21.4 5 Norte 25 Nordeste 0 -- -- 82
2020-09-15 09:00:00 21 13 Nordeste 27 Nordeste 0 -- -- 85
2020-09-15 08:00:00 20.6 20 Nordeste 35 Nordeste 0 -- -- 86
2020-09-15 07:00:00 20.6 24 Este 33 Este 0 -- -- 86
2020-09-15 06:00:00 20.7 18 Este 39 Este 0 -- -- 85
2020-09-15 05:00:00 20.6 20 Este 33 Este 0 -- -- 85
2020-09-15 04:00:00 20.9 12 Este 25 Este 0 -- -- 77
2020-09-15 03:00:00 21.3 17 Nordeste 31 Nordeste 0 -- -- 73
2020-09-15 02:00:00 21.1 18 Este 30 Nordeste 0 -- -- 75
2020-09-15 01:00:00 21.8 16 Este 30 Este 0 -- -- 65
2020-09-15 00:00:00 21.5 17 Este 27 Nordeste 0 -- -- 69
2020-09-14 23:00:00 21.6 12 Este 23 Este 0 -- -- 69
2020-09-14 22:00:00 21.8 11 Este 21 Nordeste 0 -- -- 76
2020-09-14 21:00:00 22.2 13 Este 23 Este 0 -- -- 75
2020-09-14 20:00:00 22.9 13 Este 22 Este 0 -- -- 72
2020-09-14 19:00:00 25.1 13 Nordeste 24 Nordeste 0 -- -- 67
2020-09-14 18:00:00 26 17 Nordeste 26 Nordeste 0 -- -- 61
2020-09-14 17:00:00 26.2 14 Nordeste 30 Este 0 -- -- 63
2020-09-14 16:00:00 26 15 Nordeste 31 Nordeste 0 -- -- 63
2020-09-14 15:00:00 26.9 14 Nordeste 24 Norte 0 -- -- 58
2020-09-14 14:00:00 26.4 13 Nordeste 26 Este 0 -- -- 60
2020-09-14 13:00:00 25.8 13 Nordeste 26 Este 0 -- -- 60
2020-09-14 12:00:00 24.3 14 Este 26 Nordeste 0 -- -- 64
2020-09-14 11:00:00 23.2 14 Este 27 Este 0 -- -- 72
2020-09-14 10:00:00 22.2 13 Nordeste 21 Nordeste 0 -- -- 77
2020-09-14 09:00:00 20.9 10 Este 15 Este 0 -- -- 84
2020-09-14 08:00:00 20 6 Este 19 Este 0 -- -- 88
2020-09-14 07:00:00 20.1 12 Este 22 Este 0 -- -- 88
2020-09-14 06:00:00 19.9 13 Este 21 Este 0 -- -- 89
2020-09-14 05:00:00 19.7 10 Este 19 Este 0 -- -- 89
2020-09-14 04:00:00 19.5 6 Este 10 Este 0 -- -- 87
2020-09-14 03:00:00 20 4 Nordeste 9 Norte 0 -- -- 87
2020-09-14 02:00:00 20.2 0 Calma 15 Nordeste 0 -- -- 86
2020-09-14 01:00:00 20.6 12 Nordeste 20 Nordeste 0 -- -- 89
2020-09-14 00:00:00 20.8 10 Este 18 Este 0 -- -- 86
2020-09-13 23:00:00 21.1 7 Este 14 Este 0 -- -- 84
2020-09-13 22:00:00 21.5 5 Nordeste 13 Nordeste 0 -- -- 80
2020-09-13 21:00:00 21.9 7 Norte 15 Norte 0 -- -- 78
2020-09-13 20:00:00 23.2 8 Norte 18 Norte 0 -- -- 73
2020-09-13 19:00:00 24.8 12 Norte 24 Norte 0 -- -- 64
2020-09-13 18:00:00 26.4 9 Norte 18 Nordeste 0 -- -- 57
2020-09-13 17:00:00 25.4 10 Este 21 Este 0 -- -- 62
2020-09-13 16:00:00 25.6 12 Este 23 Este 0 -- -- 61
2020-09-13 15:00:00 24.7 8 Este 19 Este 0 -- -- 66
2020-09-13 14:00:00 23.7 9 Sudeste 21 Este 0 -- -- 71
2020-09-13 13:00:00 23 17 Este 29 Este 0 -- -- 72
2020-09-13 12:00:00 22.7 11 Este 21 Este 0 -- -- 73
2020-09-13 11:00:00 22.1 10 Este 18 Este 0 -- -- 77
2020-09-13 10:00:00 21.1 8 Nordeste 14 Nordeste 0 -- -- 82
2020-09-13 09:00:00 20.2 4 Este 21 Este 0 -- -- 88
2020-09-13 08:00:00 19.5 8 Este 15 Sudeste 0 -- -- 89
2020-09-13 07:00:00 19.4 3 Noroeste 4 Noroeste 0 -- -- 88
2020-09-13 06:00:00 19.8 0 Calma 10 Este 0 -- -- 87
2020-09-13 05:00:00 20 2 Sudeste 15 Este 0 -- -- 88
2020-09-13 04:00:00 20.3 7 Este 18 Este 0 -- -- 87
2020-09-13 03:00:00 20.4 13 Este 19 Este 0 -- -- 86
2020-09-13 02:00:00 20.7 9 Este 17 Este 0 -- -- 85
2020-09-13 01:00:00 21.1 10 Este 15 Este 0 -- -- 83
2020-09-13 00:00:00 21.1 2 Este 17 Sudeste 0 -- -- 82
2020-09-12 23:00:00 21.3 8 Este 13 Nordeste 0 -- -- 81
2020-09-12 22:00:00 21.5 6 Norte 15 Noroeste 0 -- -- 80
2020-09-12 21:00:00 21.6 6 Norte 18 Noroeste 0 -- -- 77
2020-09-12 20:00:00 22.3 8 Norte 17 Norte 0 -- -- 73
2020-09-12 19:00:00 23.4 10 Norte 20 Norte 0 -- -- 66
2020-09-12 18:00:00 24.5 11 Norte 21 Noroeste 0 -- -- 62
2020-09-12 17:00:00 26.4 9 Noroeste 23 Noroeste 0 -- -- 56
2020-09-12 16:00:00 26.5 13 Noroeste 24 Norte 0 -- -- 56
2020-09-12 15:00:00 26.5 10 Noroeste 24 Noroeste 0 -- -- 55
2020-09-12 14:00:00 26.2 14 Noroeste 30 Noroeste 0 -- -- 55
2020-09-12 13:00:00 24.9 12 Norte 21 Noroeste 0 -- -- 62
2020-09-12 12:00:00 24.1 12 Norte 21 Norte 0 -- -- 64
2020-09-12 11:00:00 22.9 9 Norte 17 Norte 0 -- -- 71
2020-09-12 10:00:00 21.7 5 Noroeste 10 Noroeste 0 -- -- 76
2020-09-12 09:00:00 20.3 0 Calma 3 Sudeste 0 -- -- 80
2020-09-12 08:00:00 19.8 0 Calma 6 Este 0 -- -- 80
2020-09-12 07:00:00 20.1 3 Este 9 Nordeste 0 -- -- 81
2020-09-12 06:00:00 20.2 6 Nordeste 14 Norte 0 -- -- 79
2020-09-12 05:00:00 20.6 10 Norte 21 Nordeste 0 -- -- 81
2020-09-12 04:00:00 20.7 10 Norte 23 Norte 0 -- -- 81
2020-09-12 03:00:00 20.6 11 Norte 22 Norte 0 -- -- 81
2020-09-12 02:00:00 20.8 11 Norte 23 Norte 0 -- -- 79
2020-09-12 01:00:00 20.9 10 Norte 20 Noroeste 0 -- -- 79
2020-09-12 00:00:00 21 9 Norte 23 Norte 0 -- -- 77
2020-09-11 23:00:00 21 10 Norte 23 Norte 0 -- -- 76
2020-09-11 22:00:00 21 9 Norte 24 Norte 0 -- -- 79
2020-09-11 21:00:00 21.1 11 Norte 21 Norte 0 -- -- 78
2020-09-11 20:00:00 21.7 10 Norte 25 Norte 0 -- -- 75
2020-09-11 19:00:00 22.7 14 Norte 27 Norte 0 -- -- 71
2020-09-11 18:00:00 23.5 13 Norte 31 Norte 0 -- -- 68
2020-09-11 17:00:00 25 14 Noroeste 35 Noroeste 0 -- -- 63
2020-09-11 16:00:00 25 17 Noroeste 34 Noroeste 0 -- -- 61
2020-09-11 15:00:00 25.1 17 Noroeste 32 Noroeste 0 -- -- 61
2020-09-11 14:00:00 24.7 14 Norte 31 Norte 0 -- -- 63
2020-09-11 13:00:00 24.6 14 Norte 29 Norte 0 -- -- 64
2020-09-11 12:00:00 24.3 14 Norte 42 Noroeste 0 -- -- 65
2020-09-11 11:00:00 23.3 14 Norte 26 Norte 0 -- -- 68
2020-09-11 10:00:00 22.6 14 Norte 27 Norte 0 -- -- 70
2020-09-11 09:00:00 21.3 11 Norte 23 Norte 0 -- -- 76
2020-09-11 08:00:00 20.6 8 Norte 22 Noroeste 0 -- -- 79
2020-09-11 07:00:00 20.4 9 Norte 18 Noroeste 0 -- -- 80
2020-09-11 06:00:00 20.3 8 Norte 23 Norte 0 -- -- 81
2020-09-11 05:00:00 20.4 9 Norte 24 Norte 0 -- -- 80
2020-09-11 04:00:00 20.7 11 Norte 24 Norte 0 -- -- 79
2020-09-11 03:00:00 21 9 Norte 26 Noroeste 0 -- -- 78
2020-09-11 02:00:00 21 9 Norte 27 Norte 0 -- -- 79
2020-09-11 01:00:00 21.2 7 Noroeste 22 Noroeste 0 -- -- 78
2020-09-11 00:00:00 21.1 8 Norte 22 Noroeste 0 -- -- 78
2020-09-10 23:00:00 21.1 10 Norte 27 Noroeste 0 -- -- 79
2020-09-10 22:00:00 21.1 9 Norte 31 Noroeste 0 -- -- 79
2020-09-10 21:00:00 21.1 15 Norte 31 Norte 0 -- -- 78
2020-09-10 20:00:00 21.7 17 Norte 29 Norte 0 -- -- 76
2020-09-10 19:00:00 23.7 14 Norte 30 Noroeste 0 -- -- 69
2020-09-10 18:00:00 25.1 14 Norte 26 Norte 0 -- -- 64
2020-09-10 17:00:00 25.9 14 Nordeste 27 Noroeste 0 -- -- 62
2020-09-10 16:00:00 26.3 14 Norte 31 Norte 0 -- -- 60
2020-09-10 15:00:00 26.4 13 Nordeste 28 Nordeste 0 -- -- 60
2020-09-10 14:00:00 26 15 Nordeste 29 Este 0 -- -- 59
2020-09-10 13:00:00 26.5 13 Nordeste 29 Nordeste 0 -- -- 55
2020-09-10 12:00:00 24.8 15 Nordeste 28 Norte 0 -- -- 63
2020-09-10 11:00:00 23.7 17 Norte 30 Norte 0 -- -- 67
2020-09-10 10:00:00 22.5 13 Norte 32 Norte 0 -- -- 73
2020-09-10 09:00:00 21.2 10 Norte 31 Norte 0 -- -- 78
2020-09-10 08:00:00 20.1 9 Norte 21 Norte 0 -- -- 83
2020-09-10 07:00:00 20.2 8 Noroeste 23 Norte 0 -- -- 85
2020-09-10 06:00:00 20 7 Norte 20 Norte 0 -- -- 86
2020-09-10 05:00:00 20.2 3 Noroeste 18 Norte 0 -- -- 86
2020-09-10 04:00:00 20.4 4 Sudoeste 18 Noroeste 0 -- -- 85
2020-09-10 03:00:00 20.7 3 Oeste 17 Noroeste 0 -- -- 84
2020-09-10 02:00:00 21.1 4 Oeste 14 Norte 0 -- -- 84
2020-09-10 01:00:00 21.5 6 Noroeste 12 Noroeste 0 -- -- 82
2020-09-10 00:00:00 22.7 3 Norte 18 Este 0 -- -- 56
2020-09-09 23:00:00 24 10 Este 22 Nordeste 0 -- -- 57
2020-09-09 22:00:00 23.6 6 Este 12 Este 0 -- -- 70
2020-09-09 21:00:00 24.5 8 Nordeste 20 Nordeste 0 -- -- 69
2020-09-09 20:00:00 26.3 15 Nordeste 23 Este 0 -- -- 53
2020-09-09 19:00:00 28.9 13 Este 26 Este 0 -- -- 46
2020-09-09 18:00:00 29.7 15 Este 30 Nordeste 0 -- -- 39
2020-09-09 17:00:00 30.5 19 Nordeste 32 Nordeste 0 -- -- 38
2020-09-09 16:00:00 31.5 22 Nordeste 37 Nordeste 0 -- -- 33
2020-09-09 15:00:00 31.1 20 Nordeste 30 Nordeste 0 -- -- 41
2020-09-09 14:00:00 30.3 13 Norte 24 Nordeste 0 -- -- 46
2020-09-09 13:00:00 30.3 12 Norte 21 Noroeste 0 -- -- 47
2020-09-09 12:00:00 30.4 10 Norte 18 Norte 0 -- -- 46
2020-09-09 11:00:00 28.8 9 Nordeste 15 Norte 0 -- -- 44
2020-09-09 10:00:00 26.6 3 Nordeste 8 Noroeste 0 -- -- 55
2020-09-09 09:00:00 23.7 6 Sudeste 11 Sudeste 0 -- -- 61
2020-09-09 08:00:00 21.4 8 Este 13 Este 0 -- -- 80
2020-09-09 07:00:00 21.8 3 Sudeste 9 Noroeste 0 -- -- 77
2020-09-09 06:00:00 22.8 6 Sudeste 12 Este 0 -- -- 57
2020-09-09 05:00:00 22.6 5 Sudeste 15 Este 0 -- -- 61
2020-09-09 04:00:00 23.7 6 Sudeste 10 Sudeste 0 -- -- 56
2020-09-09 03:00:00 24.4 5 Este 13 Este 0 -- -- 50
2020-09-09 02:00:00 24.5 6 Este 11 Nordeste 0 -- -- 52
2020-09-09 01:00:00 22.9 3 Noroeste 8 Noroeste 0 -- -- 76
2020-09-09 00:00:00 24.7 4 Este 9 Este 0 -- -- 56
2020-09-08 23:00:00 25.5 6 Este 10 Este 0 -- -- 55
2020-09-08 22:00:00 25.6 6 Este 20 Nordeste 0 -- -- 61
2020-09-08 21:00:00 25.9 8 Nordeste 16 Nordeste 0 -- -- 67
2020-09-08 20:00:00 27.4 9 Nordeste 13 Nordeste 0 -- -- 61
2020-09-08 19:00:00 29 8 Norte 16 Norte 0 -- -- 57
2020-09-08 18:00:00 30.8 9 Norte 21 Norte 0 -- -- 52
2020-09-08 17:00:00 31.7 11 Nordeste 23 Nordeste 0 -- -- 47
2020-09-08 16:00:00 32.6 11 Norte 31 Nordeste 0 -- -- 45
2020-09-08 15:00:00 33.6 15 Nordeste 30 Norte 0 -- -- 38
2020-09-08 14:00:00 33.5 19 Nordeste 31 Nordeste 0 -- -- 34
2020-09-08 13:00:00 32.7 21 Nordeste 38 Nordeste 0 -- -- 33
2020-09-08 12:00:00 32.9 24 Nordeste 39 Nordeste 0 -- -- 29
2020-09-08 11:00:00 31.2 21 Nordeste 35 Nordeste 0 -- -- 32
2020-09-08 10:00:00 29.8 21 Nordeste 35 Nordeste 0 -- -- 34
2020-09-08 09:00:00 27.5 22 Nordeste 34 Este 0 -- -- 39
2020-09-08 08:00:00 25.5 23 Este 33 Nordeste 0 -- -- 43
2020-09-08 07:00:00 26 24 Este 36 Nordeste 0 -- -- 40
2020-09-08 06:00:00 22.3 15 Este 24 Este 0 -- -- 71
2020-09-08 05:00:00 23.2 14 Este 27 Sudeste 0 -- -- 63
2020-09-08 04:00:00 25 15 Este 31 Nordeste 0 -- -- 54
2020-09-08 03:00:00 27.6 18 Nordeste 27 Nordeste 0 -- -- 35
2020-09-08 02:00:00 25.1 8 Nordeste 17 Nordeste 0 -- -- 42
2020-09-08 01:00:00 25.9 6 Este 21 Nordeste 0 -- -- 46
2020-09-08 00:00:00 27.6 13 Nordeste 23 Este 0 -- -- 35
2020-09-07 23:00:00 28.2 16 Este 24 Nordeste 0 -- -- 29
2020-09-07 22:00:00 26.9 4 Este 8 Este 0 -- -- 40
2020-09-07 21:00:00 27.8 5 Nordeste 12 Nordeste 0 -- -- 46
2020-09-07 20:00:00 29.1 10 Nordeste 19 Nordeste 0 -- -- 42
2020-09-07 19:00:00 30.4 9 Nordeste 21 Nordeste 0 -- -- 42
2020-09-07 18:00:00 31.1 11 Norte 20 Este 0 -- -- 46
2020-09-07 17:00:00 31.8 12 Norte 21 Nordeste 0 -- -- 40
2020-09-07 16:00:00 30.9 15 Este 28 Este 0 -- -- 44
2020-09-07 15:00:00 31.8 17 Nordeste 28 Nordeste 0 -- -- 38
2020-09-07 14:00:00 30.6 10 Norte 19 Noroeste 0 -- -- 46
2020-09-07 13:00:00 29 11 Noroeste 24 Noroeste 0 -- -- 54
2020-09-07 12:00:00 28.8 9 Norte 23 Noroeste 0 -- -- 57
2020-09-07 11:00:00 26.8 7 Este 17 Este 0 -- -- 56
2020-09-07 10:00:00 24.2 14 Este 20 Este 0 -- -- 67
2020-09-07 09:00:00 22.6 10 Nordeste 21 Nordeste 0 -- -- 81
2020-09-07 08:00:00 21.2 3 Nordeste 15 Norte 0 -- -- 86
2020-09-07 07:00:00 21 8 Norte 19 Noroeste 0 -- -- 89
2020-09-07 06:00:00 20.5 6 Noroeste 12 Sudoeste 0 -- -- 85
2020-09-07 05:00:00 20.7 5 Sudoeste 13 Nordeste 0 -- -- 73
2020-09-07 04:00:00 22.1 10 Este 17 Sur 0 -- -- 60
2020-09-07 03:00:00 21.7 8 Sudeste 19 Sudeste 0 -- -- 63
2020-09-07 02:00:00 21 15 Sudeste 28 Este 0 -- -- 87
2020-09-07 01:00:00 21 22 Este 31 Este 0 -- -- 89
2020-09-07 00:00:00 21 14 Este 23 Este 0 -- -- 89
2020-09-06 23:00:00 21.5 13 Este 22 Este 0 -- -- 87
2020-09-06 22:00:00 22.1 6 Este 17 Este 0 -- -- 83
2020-09-06 21:00:00 22.4 12 Este 17 Este 0 -- -- 81
2020-09-06 20:00:00 23.3 9 Nordeste 19 Este 0 -- -- 75
2020-09-06 19:00:00 24.6 12 Nordeste 22 Nordeste 0 -- -- 70
2020-09-06 18:00:00 25.9 12 Nordeste 22 Nordeste 0 -- -- 65
2020-09-06 17:00:00 27 15 Nordeste 24 Norte 0 -- -- 60
2020-09-06 16:00:00 27.6 14 Nordeste 24 Norte 0 -- -- 57
2020-09-06 15:00:00 27.1 13 Nordeste 25 Nordeste 0 -- -- 58
2020-09-06 14:00:00 27 11 Norte 25 Noroeste 0 -- -- 58
2020-09-06 13:00:00 26.5 11 Norte 21 Norte 0 -- -- 61
2020-09-06 12:00:00 25.1 8 Norte 21 Noroeste 0 -- -- 64
2020-09-06 11:00:00 23.9 10 Noroeste 20 Noroeste 0 -- -- 70
2020-09-06 10:00:00 22.4 7 Noroeste 17 Noroeste 0 -- -- 76
2020-09-06 09:00:00 20.5 4 Noroeste 8 Noroeste 0 -- -- 85
2020-09-06 08:00:00 18.6 5 Sudoeste 9 Oeste 0 -- -- 88
2020-09-06 07:00:00 18.8 6 Sudoeste 10 Oeste 0 -- -- 87
2020-09-06 06:00:00 18.9 6 Oeste 9 Oeste 0 -- -- 85
2020-09-06 05:00:00 19.7 4 Oeste 10 Noroeste 0 -- -- 81
2020-09-06 04:00:00 20.6 5 Noroeste 12 Noroeste 0 -- -- 80
2020-09-06 03:00:00 21 3 Noroeste 10 Norte 0 -- -- 81
2020-09-06 02:00:00 21.2 5 Este 12 Este 0 -- -- 83
2020-09-06 01:00:00 21.1 5 Norte 14 Norte 0 -- -- 82
2020-09-06 00:00:00 21.2 7 Norte 17 Norte 0 -- -- 83
2020-09-05 23:00:00 21.2 6 Norte 15 Norte 0 -- -- 82
2020-09-05 22:00:00 21.4 6 Noroeste 17 Norte 0 -- -- 81
2020-09-05 21:00:00 21.8 8 Norte 21 Noroeste 0 -- -- 79
2020-09-05 20:00:00 23.5 12 Noroeste 22 Noroeste 0 -- -- 71
2020-09-05 19:00:00 25.2 10 Norte 21 Norte 0 -- -- 63
2020-09-05 18:00:00 25.6 10 Norte 22 Noroeste 0 -- -- 60
2020-09-05 17:00:00 26.1 13 Noroeste 27 Noroeste 0 -- -- 59
2020-09-05 16:00:00 26.7 15 Noroeste 32 Noroeste 0 -- -- 57
2020-09-05 15:00:00 27.2 17 Noroeste 28 Norte 0 -- -- 54
2020-09-05 14:00:00 26.9 17 Noroeste 28 Oeste 0 -- -- 55
2020-09-05 13:00:00 26.6 12 Noroeste 20 Noroeste 0 -- -- 57
2020-09-05 12:00:00 25.5 4 Noroeste 14 Sudoeste 0 -- -- 60
2020-09-05 11:00:00 23.6 5 Nordeste 16 Noroeste 0 -- -- 65
2020-09-05 10:00:00 22.3 7 Noroeste 15 Noroeste 0 -- -- 74
2020-09-05 09:00:00 20.3 4 Oeste 7 Sudoeste 0 -- -- 83
2020-09-05 08:00:00 18.4 2 Oeste 8 Oeste 0 -- -- 86
2020-09-05 07:00:00 18.4 3 Sudoeste 9 Oeste 0 -- -- 86
2020-09-05 06:00:00 19.1 3 Sudoeste 9 Noroeste 0 -- -- 86
2020-09-05 05:00:00 19.9 3 Norte 11 Norte 0 -- -- 85
2020-09-05 04:00:00 20.1 5 Noroeste 17 Norte 0 -- -- 84
2020-09-05 03:00:00 20.1 7 Noroeste 15 Noroeste 0 -- -- 85
2020-09-05 02:00:00 20.2 5 Norte 19 Noroeste 0 -- -- 84
2020-09-05 01:00:00 20.6 10 Norte 22 Norte 0 -- -- 84
2020-09-05 00:00:00 20.8 9 Noroeste 18 Norte 0 -- -- 85
2020-09-04 23:00:00 20.7 6 Noroeste 16 Noroeste 0 -- -- 84
2020-09-04 22:00:00 20.9 8 Norte 18 Noroeste 0 -- -- 81
2020-09-04 21:00:00 21.6 6 Norte 18 Noroeste 0 -- -- 78
2020-09-04 20:00:00 23.6 8 Noroeste 17 Norte 0 -- -- 68
2020-09-04 19:00:00 24.9 9 Norte 21 Noroeste 0 -- -- 63
2020-09-04 18:00:00 25.6 12 Norte 23 Noroeste 0 -- -- 60
2020-09-04 17:00:00 26.1 12 Noroeste 26 Norte 0 -- -- 58
2020-09-04 16:00:00 26.2 13 Norte 27 Norte 0 -- -- 58
2020-09-04 15:00:00 26.1 12 Noroeste 26 Noroeste 0 -- -- 58
2020-09-04 14:00:00 26.5 12 Noroeste 24 Noroeste 0 -- -- 56
2020-09-04 13:00:00 25.5 12 Noroeste 26 Noroeste 0 -- -- 59
2020-09-04 12:00:00 24.1 11 Norte 21 Noroeste 0 -- -- 63
2020-09-04 11:00:00 23.7 12 Norte 21 Noroeste 0 -- -- 66
2020-09-04 10:00:00 21.9 10 Noroeste 20 Norte 0 -- -- 73
2020-09-04 09:00:00 19.9 5 Norte 12 Norte 0 -- -- 83
2020-09-04 08:00:00 18.5 2 Oeste 11 Norte 0 -- -- 85
2020-09-04 07:00:00 18.2 3 Norte 10 Nordeste 0 -- -- 88
2020-09-04 06:00:00 18.3 0 Calma 8 Norte 0 -- -- 84
2020-09-04 05:00:00 18.9 0 Calma 9 Noroeste 0 -- -- 84
2020-09-04 04:00:00 19.2 3 Nordeste 15 Este 0 -- -- 84
2020-09-04 03:00:00 19.7 7 Este 13 Nordeste 0 -- -- 82
2020-09-04 02:00:00 19.7 6 Nordeste 11 Nordeste 0 -- -- 82
2020-09-04 01:00:00 20 5 Nordeste 12 Nordeste 0 -- -- 82
2020-09-04 00:00:00 20.3 5 Norte 15 Norte 0 -- -- 81
2020-09-03 23:00:00 20.6 6 Norte 12 Norte 0 -- -- 80
2020-09-03 22:00:00 20.8 5 Norte 13 Nordeste 0 -- -- 80
2020-09-03 21:00:00 20.9 10 Nordeste 17 Nordeste 0 -- -- 78
2020-09-03 20:00:00 22.1 11 Nordeste 20 Nordeste 0 -- -- 71
2020-09-03 19:00:00 23.8 12 Nordeste 21 Nordeste 0 -- -- 65
2020-09-03 18:00:00 25 12 Nordeste 23 Este 0 -- -- 61
2020-09-03 17:00:00 25.2 12 Nordeste 24 Nordeste 0 -- -- 61
2020-09-03 16:00:00 25.5 14 Nordeste 26 Nordeste 0 -- -- 59
2020-09-03 15:00:00 25.8 14 Nordeste 23 Nordeste 0 -- -- 58
2020-09-03 14:00:00 25.4 13 Nordeste 24 Este 0 -- -- 59
2020-09-03 13:00:00 25.4 12 Nordeste 26 Nordeste 0 -- -- 58
2020-09-03 12:00:00 24.3 12 Nordeste 21 Este 0 -- -- 61
2020-09-03 11:00:00 23.2 12 Nordeste 23 Nordeste 0 -- -- 66
2020-09-03 10:00:00 22 12 Nordeste 22 Este 0 -- -- 72
2020-09-03 09:00:00 20.7 13 Nordeste 21 Nordeste 0 -- -- 77
2020-09-03 08:00:00 20.1 9 Nordeste 17 Nordeste 0 -- -- 81
2020-09-03 07:00:00 19.9 8 Nordeste 19 Nordeste 0 -- -- 84
2020-09-03 06:00:00 19.9 9 Nordeste 16 Este 0 -- -- 85
2020-09-03 05:00:00 20 8 Nordeste 14 Nordeste 0 -- -- 87
2020-09-03 04:00:00 20.2 7 Nordeste 21 Este 0 -- -- 86
2020-09-03 03:00:00 20.3 14 Este 22 Nordeste 0 -- -- 86
2020-09-03 02:00:00 20.4 13 Nordeste 19 Este 0 -- -- 86
2020-09-03 01:00:00 20.7 12 Este 22 Este 0 -- -- 82
2020-09-03 00:00:00 20.9 9 Este 22 Este 0 -- -- 80
2020-09-02 23:00:00 21 12 Este 23 Este 0 -- -- 80
2020-09-02 22:00:00 21.3 11 Este 25 Este 0 -- -- 81
2020-09-02 21:00:00 21.8 15 Este 26 Este 0 -- -- 70
2020-09-02 20:00:00 23.1 16 Este 27 Nordeste 0 -- -- 61
2020-09-02 19:00:00 25.6 15 Nordeste 26 Nordeste 0 -- -- 45
2020-09-02 18:00:00 26.7 16 Nordeste 25 Nordeste 0 -- -- 44
2020-09-02 17:00:00 27.1 13 Nordeste 25 Nordeste 0 -- -- 40
2020-09-02 16:00:00 27.3 17 Este 32 Este 0 -- -- 46
2020-09-02 15:00:00 27.2 20 Este 34 Este 0 -- -- 45
2020-09-02 14:00:00 27.4 24 Este 40 Sudeste 0 -- -- 39
2020-09-02 13:00:00 26.9 19 Este 33 Nordeste 0 -- -- 41
2020-09-02 12:00:00 26.4 19 Nordeste 27 Nordeste 0 -- -- 47
2020-09-02 11:00:00 24.9 18 Nordeste 27 Nordeste 0 -- -- 54
2020-09-02 10:00:00 23.3 11 Este 20 Nordeste 0 -- -- 69
2020-09-02 09:00:00 21.4 4 Nordeste 8 Nordeste 0 -- -- 82
2020-09-02 08:00:00 20.4 4 Norte 12 Norte 0 -- -- 86
2020-09-02 07:00:00 20.3 4 Norte 10 Norte 0 -- -- 87
2020-09-02 06:00:00 20.2 5 Norte 15 Nordeste 0 -- -- 87
2020-09-02 05:00:00 20.2 9 Nordeste 16 Nordeste 0 -- -- 88
2020-09-02 04:00:00 20.3 8 Este 15 Nordeste 0 -- -- 87
2020-09-02 03:00:00 20.5 7 Este 16 Este 0 -- -- 86
2020-09-02 02:00:00 20.3 10 Este 19 Este 0 -- -- 88
2020-09-02 01:00:00 20.5 10 Este 23 Este 0 -- -- 87
2020-09-02 00:00:00 21 11 Este 17 Sudeste 0 -- -- 84
2020-09-01 23:00:00 20.9 7 Este 17 Nordeste 0 -- -- 86
2020-09-01 22:00:00 21.3 10 Nordeste 16 Nordeste 0 -- -- 85
2020-09-01 21:00:00 22.5 8 Nordeste 15 Nordeste 0 -- -- 75
2020-09-01 20:00:00 24.4 9 Nordeste 18 Nordeste 0 -- -- 60
2020-09-01 19:00:00 27.5 10 Sudoeste 18 Oeste 0 -- -- 59
2020-09-01 18:00:00 28.2 9 Este 18 Este 0 -- -- 44
2020-09-01 17:00:00 28.7 9 Nordeste 28 Este 0 -- -- 43
2020-09-01 16:00:00 28.2 14 Este 36 Este 0 -- -- 45
2020-09-01 15:00:00 27.5 13 Este 23 Este 0 -- -- 52
2020-09-01 14:00:00 26.2 13 Este 23 Este 0 -- -- 61
2020-09-01 13:00:00 25.7 10 Nordeste 21 Este 0 -- -- 62
2020-09-01 12:00:00 25.1 7 Norte 15 Noroeste 0 -- -- 65
2020-09-01 11:00:00 23.7 6 Oeste 10 Oeste 0 -- -- 72
2020-09-01 10:00:00 20.6 3 Nordeste 10 Noroeste 0 -- -- 84
2020-09-01 09:00:00 19.8 4 Norte 8 Noroeste 0 -- -- 87
2020-09-01 08:00:00 18.1 2 Sudoeste 5 Norte 0 -- -- 90
2020-09-01 07:00:00 17.8 4 Noroeste 8 Norte 0 -- -- 90
2020-09-01 06:00:00 18.4 0 Calma 5 Norte 0 -- -- 88
2020-09-01 05:00:00 19 2 Norte 12 Nordeste 0 -- -- 87
2020-09-01 04:00:00 19.4 4 Nordeste 15 Nordeste 0 -- -- 87
2020-09-01 03:00:00 20.1 8 Nordeste 14 Nordeste 0 -- -- 87
2020-09-01 02:00:00 20.4 8 Nordeste 22 Nordeste 0 -- -- 86
2020-09-01 01:00:00 21 12 Nordeste 22 Nordeste 0 -- -- 84
2020-09-01 00:00:00 21.2 5 Norte 15 Nordeste 0 -- -- 85
2020-08-31 23:00:00 21.2 7 Norte 19 Norte 0 -- -- 85
2020-08-31 22:00:00 21.2 8 Norte 22 Noroeste 0 -- -- 84
2020-08-31 21:00:00 21.3 12 Norte 29 Norte 0 -- -- 83
2020-08-31 20:00:00 21.9 14 Norte 32 Noroeste 0 -- -- 79
2020-08-31 19:00:00 22.9 15 Norte 32 Noroeste 0 -- -- 73
2020-08-31 18:00:00 23.3 15 Norte 36 Norte 0 -- -- 72
2020-08-31 17:00:00 23.4 19 Norte 35 Norte 0 -- -- 69
2020-08-31 16:00:00 23.6 19 Norte 37 Noroeste 0 -- -- 70
2020-08-31 15:00:00 23.6 17 Norte 33 Norte 0 -- -- 69
2020-08-31 14:00:00 23.3 17 Norte 34 Norte 0 -- -- 69
2020-08-31 13:00:00 22.8 16 Norte 33 Norte 0 -- -- 72
2020-08-31 12:00:00 22.1 17 Norte 35 Norte 0 -- -- 74
2020-08-31 11:00:00 21.1 17 Norte 31 Norte 0 -- -- 76
2020-08-31 10:00:00 20.9 14 Norte 28 Norte 0 -- -- 79
2020-08-31 09:00:00 20.4 15 Norte 33 Norte 0 -- -- 79
2020-08-31 08:00:00 20 16 Norte 35 Norte 0 -- -- 82
2020-08-31 07:00:00 19.9 13 Norte 32 Norte 0 -- -- 83
2020-08-31 06:00:00 19.9 17 Norte 30 Norte 0 -- -- 81
2020-08-31 05:00:00 19.9 13 Norte 31 Norte 0 -- -- 82
2020-08-31 04:00:00 20 12 Norte 34 Norte 0 -- -- 84
2020-08-31 03:00:00 20.1 14 Norte 32 Norte 0 -- -- 84
2020-08-31 02:00:00 20 15 Norte 31 Norte 0 -- -- 83
2020-08-31 01:00:00 20 14 Norte 30 Norte 0 -- -- 83
2020-08-31 00:00:00 20.1 17 Norte 31 Norte 0 -- -- 81
2020-08-30 23:00:00 20.3 18 Norte 34 Norte 0 -- -- 80
2020-08-30 22:00:00 20.4 17 Norte 36 Norte 0 -- -- 79
2020-08-30 21:00:00 20.7 14 Norte 32 Norte 0 -- -- 77
2020-08-30 20:00:00 21.2 18 Norte 39 Norte 0 -- -- 72
2020-08-30 19:00:00 22.5 19 Norte 42 Norte 0 -- -- 64
2020-08-30 18:00:00 23.2 20 Norte 43 Norte 0 -- -- 59
2020-08-30 17:00:00 24.2 22 Norte 49 Noroeste 0 -- -- 58
2020-08-30 16:00:00 24.5 19 Norte 43 Norte 0 -- -- 52
2020-08-30 15:00:00 24.8 24 Norte 44 Norte 0 -- -- 53
2020-08-30 14:00:00 24 25 Norte 43 Norte 0 -- -- 54
2020-08-30 13:00:00 23.7 23 Norte 44 Norte 0 -- -- 55
2020-08-30 12:00:00 23 24 Norte 44 Norte 0 -- -- 57
2020-08-30 11:00:00 22.3 19 Norte 44 Norte 0 -- -- 60
2020-08-30 10:00:00 21.6 19 Norte 39 Norte 0 -- -- 65
2020-08-30 09:00:00 20.7 18 Norte 37 Nordeste 0 -- -- 71
2020-08-30 08:00:00 19.7 17 Norte 40 Norte 0 -- -- 72
2020-08-30 07:00:00 19.5 15 Norte 35 Norte 0 -- -- 74
2020-08-30 06:00:00 19.5 15 Norte 32 Norte 0 -- -- 71
2020-08-30 05:00:00 19.4 15 Norte 34 Norte 0 -- -- 73
2020-08-30 04:00:00 19.8 20 Norte 37 Norte 0 -- -- 74
2020-08-30 03:00:00 19.7 16 Norte 36 Nordeste 0 -- -- 71
2020-08-30 02:00:00 20.2 22 Norte 38 Norte 0 -- -- 71
2020-08-30 01:00:00 20.7 14 Norte 38 Norte 0 -- -- 73
2020-08-30 00:00:00 20.8 20 Norte 43 Nordeste 0 -- -- 79
2020-08-29 23:00:00 20.7 18 Norte 37 Norte 0 -- -- 76
2020-08-29 22:00:00 20.9 21 Norte 36 Norte 0 -- -- 71
2020-08-29 21:00:00 21.1 18 Norte 35 Norte 0 -- -- 76
2020-08-29 20:00:00 21.6 21 Norte 41 Norte 0 -- -- 72
2020-08-29 19:00:00 23.2 24 Norte 43 Norte 0 -- -- 67
2020-08-29 18:00:00 23.9 23 Norte 41 Norte 0 -- -- 62
2020-08-29 17:00:00 23.7 22 Norte 46 Norte 0 -- -- 65
2020-08-29 16:00:00 24 24 Norte 39 Norte 0 -- -- 71
2020-08-29 15:00:00 23.9 17 Nordeste 37 Norte 0 -- -- 77
2020-08-29 14:00:00 24.2 21 Norte 41 Norte 0 -- -- 75
2020-08-29 13:00:00 24.3 20 Norte 35 Norte 0 -- -- 72
2020-08-29 12:00:00 23.6 21 Norte 33 Norte 0 -- -- 73
2020-08-29 11:00:00 23.7 19 Norte 38 Norte 0 -- -- 67
2020-08-29 10:00:00 22.4 17 Norte 32 Norte 0 -- -- 73
2020-08-29 09:00:00 21.6 13 Norte 30 Norte 0 -- -- 75
2020-08-29 08:00:00 20.9 13 Norte 35 Norte 0 -- -- 74
2020-08-29 07:00:00 20.9 15 Norte 32 Norte 0 -- -- 81
2020-08-29 06:00:00 20.9 15 Norte 33 Nordeste 0 -- -- 79
2020-08-29 05:00:00 20.4 15 Norte 27 Norte 0 -- -- 76
2020-08-29 04:00:00 20.6 15 Norte 29 Norte 0 -- -- 76
2020-08-29 03:00:00 20.8 18 Norte 27 Norte 0 -- -- 77
2020-08-29 02:00:00 20.6 13 Norte 28 Norte 0 -- -- 79
2020-08-29 01:00:00 21 13 Norte 26 Norte 0 -- -- 79
2020-08-29 00:00:00 21.1 12 Norte 26 Norte 0 -- -- 82
2020-08-28 23:00:00 21.2 11 Norte 24 Nordeste 0 -- -- 82
2020-08-28 22:00:00 21.4 13 Norte 31 Nordeste 0 -- -- 83
2020-08-28 21:00:00 21.8 12 Norte 36 Norte 0 -- -- 81
2020-08-28 20:00:00 22.8 18 Norte 33 Norte 0 -- -- 78
2020-08-28 19:00:00 25.6 14 Norte 29 Norte 0 -- -- 67
2020-08-28 18:00:00 27.1 16 Norte 30 Norte 0 -- -- 62
2020-08-28 17:00:00 29.1 17 Norte 30 Nordeste 0 -- -- 55
2020-08-28 16:00:00 31.3 11 Nordeste 28 Noroeste 0 -- -- 45
2020-08-28 15:00:00 29.9 15 Noroeste 27 Norte 0 -- -- 52
2020-08-28 14:00:00 30.7 14 Noroeste 23 Noroeste 0 -- -- 49
2020-08-28 13:00:00 31 12 Noroeste 22 Noroeste 0 -- -- 48
2020-08-28 12:00:00 30.2 11 Noroeste 19 Noroeste 0 -- -- 51
2020-08-28 11:00:00 29.7 13 Nordeste 24 Este 0 -- -- 37
2020-08-28 10:00:00 28.1 12 Este 23 Este 0 -- -- 39
2020-08-28 09:00:00 23.4 6 Noroeste 17 Noroeste 0 -- -- 78
2020-08-28 08:00:00 23.5 10 Noroeste 16 Noroeste 0 -- -- 75
2020-08-28 07:00:00 25.2 3 Oeste 20 Nordeste 0 -- -- 61
2020-08-28 06:00:00 28.7 14 Nordeste 24 Nordeste 0 -- -- 28
2020-08-28 05:00:00 28.8 15 Nordeste 32 Nordeste 0 -- -- 27
2020-08-28 04:00:00 27.6 18 Nordeste 36 Nordeste 0 -- -- 37
2020-08-28 03:00:00 28.3 24 Nordeste 43 Nordeste 0 -- -- 33
2020-08-28 02:00:00 29 25 Nordeste 44 Nordeste 0 -- -- 29
2020-08-28 01:00:00 29.7 23 Nordeste 36 Nordeste 0 -- -- 28
2020-08-28 00:00:00 29.4 14 Este 22 Este 0 -- -- 32
2020-08-27 23:00:00 30.3 13 Este 25 Este 0 -- -- 30
2020-08-27 22:00:00 30.8 16 Este 24 Nordeste 0 -- -- 32
2020-08-27 21:00:00 29.3 11 Este 19 Este 0 -- -- 44
2020-08-27 20:00:00 31.5 14 Nordeste 31 Este 0 -- -- 38
2020-08-27 19:00:00 34.3 17 Nordeste 39 Nordeste 0 -- -- 29
2020-08-27 18:00:00 36 22 Nordeste 42 Nordeste 0 -- -- 28
2020-08-27 17:00:00 36.1 30 Nordeste 44 Este 0 -- -- 22
2020-08-27 16:00:00 36.6 22 Nordeste 36 Este 0 -- -- 25
2020-08-27 15:00:00 36.6 20 Este 30 Sudeste 0 -- -- 33
2020-08-27 14:00:00 35.2 9 Oeste 21 Noroeste 0 -- -- 42
2020-08-27 13:00:00 33.2 14 Noroeste 22 Noroeste 0 -- -- 48
2020-08-27 12:00:00 32.2 9 Noroeste 19 Oeste 0 -- -- 49
2020-08-27 11:00:00 30.3 12 Noroeste 19 Noroeste 0 -- -- 54
2020-08-27 10:00:00 26.9 6 Oeste 13 Oeste 0 -- -- 65
2020-08-27 09:00:00 24.7 9 Noroeste 15 Noroeste 0 -- -- 76
2020-08-27 08:00:00 23.6 8 Noroeste 15 Noroeste 0 -- -- 81
2020-08-27 07:00:00 24.4 10 Noroeste 14 Noroeste 0 -- -- 77
2020-08-27 06:00:00 28.6 6 Noroeste 14 Este 0 -- -- 58
2020-08-27 05:00:00 30.6 4 Nordeste 14 Sudeste 0 -- -- 32
2020-08-27 04:00:00 31.4 10 Este 19 Este 0 -- -- 28
2020-08-27 03:00:00 30.1 6 Este 16 Este 0 -- -- 31
2020-08-27 02:00:00 28.9 9 Este 19 Este 0 -- -- 40
2020-08-27 01:00:00 27.8 11 Este 30 Este 0 -- -- 50
2020-08-27 00:00:00 31.2 3 Sudoeste 7 Sudoeste 0 -- -- 32
2020-08-26 23:00:00 30.7 7 Sudoeste 9 Sudoeste 0 -- -- 33
2020-08-26 22:00:00 30.2 5 Sudoeste 13 Oeste 0 -- -- 42
2020-08-26 21:00:00 31 7 Noroeste 13 Noroeste 0 -- -- 42
2020-08-26 20:00:00 32.1 10 Noroeste 13 Noroeste 0 -- -- 42
2020-08-26 19:00:00 33.7 11 Noroeste 18 Oeste 0 -- -- 44
2020-08-26 18:00:00 35.6 13 Noroeste 19 Noroeste 0 -- -- 42
2020-08-26 17:00:00 38.2 12 Noroeste 20 Noroeste 0 -- -- 37
2020-08-26 16:00:00 39.6 8 Noroeste 17 Noroeste 0 -- -- 32
2020-08-26 15:00:00 37.7 5 Noroeste 20 Nordeste 0 -- -- 35
2020-08-26 14:00:00 34.5 14 Este 30 Este 0 -- -- 41
2020-08-26 13:00:00 35 14 Este 26 Este 0 -- -- 39
2020-08-26 12:00:00 33.4 7 Este 23 Este 0 -- -- 40
2020-08-26 11:00:00 30 14 Nordeste 31 Este 0 -- -- 46
2020-08-26 10:00:00 30.3 10 Nordeste 27 Este 0.2 -- -- 44
2020-08-26 09:00:00 29.3 14 Este 23 Este 0 -- -- 41
2020-08-26 08:00:00 28.7 12 Este 17 Sudeste 0 -- -- 43
2020-08-26 07:00:00 28.8 11 Este 18 Este 0 -- -- 40
2020-08-26 06:00:00 28.6 13 Este 24 Este 0 -- -- 41
2020-08-26 05:00:00 29.8 11 Este 24 Nordeste 0 -- -- 37
2020-08-26 04:00:00 28.2 11 Este 18 Nordeste 0 -- -- 39
2020-08-26 03:00:00 27.8 15 Nordeste 24 Nordeste 0 -- -- 46
2020-08-26 02:00:00 26.8 12 Este 19 Nordeste 0 -- -- 51
2020-08-26 01:00:00 26.4 8 Este 23 Nordeste 0 -- -- 53
2020-08-26 00:00:00 27 22 Este 40 Nordeste 0 -- -- 51
2020-08-25 23:00:00 26.4 15 Este 27 Sudeste 0 -- -- 58
2020-08-25 22:00:00 26.2 5 Nordeste 15 Este 0 -- -- 65
2020-08-25 21:00:00 26.4 11 Este 19 Este 0 -- -- 65
2020-08-25 20:00:00 27.8 7 Este 19 Noroeste 0 -- -- 62
2020-08-25 19:00:00 29.8 10 Norte 19 Noroeste 0 -- -- 57
2020-08-25 18:00:00 31.1 12 Este 21 Sudeste 0 -- -- 46
2020-08-25 17:00:00 30.9 15 Este 29 Este 0 -- -- 47
2020-08-25 16:00:00 31.3 20 Este 31 Este 0 -- -- 46
2020-08-25 15:00:00 31.2 16 Nordeste 31 Este 0 -- -- 46
2020-08-25 14:00:00 30.1 15 Nordeste 32 Este 0 -- -- 48
2020-08-25 13:00:00 29.1 20 Nordeste 36 Este 0 -- -- 52
2020-08-25 12:00:00 28.1 17 Nordeste 28 Nordeste 0 -- -- 55
2020-08-25 11:00:00 27 13 Nordeste 27 Nordeste 0 -- -- 57
2020-08-25 10:00:00 23.7 4 Noroeste 13 Noroeste 0 -- -- 80
2020-08-25 09:00:00 21.5 6 Noroeste 13 Noroeste 0 -- -- 91
2020-08-25 08:00:00 20.6 8 Sudoeste 12 Norte 0 -- -- 93
2020-08-25 07:00:00 20.6 5 Norte 20 Norte 0 -- -- 93
2020-08-25 06:00:00 20.5 9 Norte 24 Noroeste 0 -- -- 93
2020-08-25 05:00:00 20.5 6 Norte 18 Norte 0 -- -- 92
2020-08-25 04:00:00 20.5 8 Norte 20 Noroeste 0 -- -- 91
2020-08-25 03:00:00 20.6 8 Norte 23 Noroeste 0 -- -- 91
2020-08-25 02:00:00 20.8 9 Norte 23 Norte 0 -- -- 89
2020-08-25 01:00:00 20.9 11 Norte 27 Norte 0 -- -- 88
2020-08-25 00:00:00 21.1 11 Norte 22 Nordeste 0 -- -- 87
2020-08-24 23:00:00 21.3 10 Norte 26 Norte 0 -- -- 86
2020-08-24 22:00:00 21.5 12 Norte 26 Norte 0 -- -- 86
2020-08-24 21:00:00 21.8 15 Norte 32 Norte 0 -- -- 84
2020-08-24 20:00:00 22.6 16 Norte 35 Norte 0 -- -- 81
2020-08-24 19:00:00 24.7 17 Norte 33 Norte 0 -- -- 72
2020-08-24 18:00:00 26.1 15 Norte 27 Norte 0 -- -- 65
2020-08-24 17:00:00 28 18 Norte 32 Nordeste 0 -- -- 56
2020-08-24 16:00:00 27.6 17 Norte 31 Norte 0 -- -- 59
2020-08-24 15:00:00 28.5 19 Norte 43 Nordeste 0 -- -- 56
2020-08-24 14:00:00 28.8 19 Nordeste 36 Nordeste 0 -- -- 47
2020-08-24 13:00:00 27.5 17 Nordeste 31 Norte 0 -- -- 58
2020-08-24 12:00:00 26.2 15 Norte 29 Norte 0 -- -- 64
2020-08-24 11:00:00 25.3 14 Norte 28 Nordeste 0 -- -- 66
2020-08-24 10:00:00 23.9 9 Norte 21 Norte 0 -- -- 71
2020-08-24 09:00:00 21.7 2 Este 10 Este 0 -- -- 79
2020-08-24 08:00:00 20 4 Sudeste 13 Norte 0 -- -- 88
2020-08-24 07:00:00 20.2 5 Norte 19 Noroeste 0 -- -- 88
2020-08-24 06:00:00 20.1 5 Noroeste 20 Norte 0 -- -- 88
2020-08-24 05:00:00 20.2 8 Norte 16 Noroeste 0 -- -- 88
2020-08-24 04:00:00 20.3 5 Norte 12 Noroeste 0 -- -- 88
2020-08-24 03:00:00 20.2 4 Sur 16 Sudeste 0 -- -- 85
2020-08-24 02:00:00 20.3 5 Sur 10 Sur 0 -- -- 86
2020-08-24 01:00:00 20.5 5 Sur 9 Sur 0 -- -- 85
2020-08-24 00:00:00 21 3 Norte 14 Nordeste 0 -- -- 85
2020-08-23 23:00:00 21.3 6 Norte 17 Norte 0 -- -- 85
2020-08-23 22:00:00 21.7 7 Norte 21 Noroeste 0 -- -- 84
2020-08-23 21:00:00 21.9 9 Norte 28 Norte 0 -- -- 84
2020-08-23 20:00:00 23.1 15 Norte 33 Noroeste 0 -- -- 79
2020-08-23 19:00:00 24.7 14 Norte 32 Noroeste 0 -- -- 73
2020-08-23 18:00:00 26.5 14 Norte 33 Norte 0 -- -- 66
2020-08-23 17:00:00 28.4 14 Norte 29 Norte 0 -- -- 59
2020-08-23 16:00:00 29.3 12 Norte 24 Nordeste 0 -- -- 55
2020-08-23 15:00:00 29.1 14 Norte 26 Norte 0 -- -- 56
2020-08-23 14:00:00 28.6 13 Norte 23 Norte 0 -- -- 58
2020-08-23 13:00:00 27.3 13 Norte 24 Norte 0 -- -- 63
2020-08-23 12:00:00 26.6 13 Norte 25 Norte 0 -- -- 66
2020-08-23 11:00:00 25.2 14 Norte 26 Norte 0 -- -- 71
2020-08-23 10:00:00 23.5 12 Norte 26 Noroeste 0 -- -- 80
2020-08-23 09:00:00 21.7 8 Norte 18 Norte 0 -- -- 88
2020-08-23 08:00:00 20.9 7 Noroeste 19 Oeste 0 -- -- 92
2020-08-23 07:00:00 21 5 Sur 21 Noroeste 0 -- -- 91
2020-08-23 06:00:00 21 6 Norte 17 Nordeste 0 -- -- 91
2020-08-23 05:00:00 20.7 8 Oeste 16 Noroeste 0 -- -- 91
2020-08-23 04:00:00 20.8 5 Oeste 12 Noroeste 0 -- -- 87
2020-08-23 03:00:00 21.1 7 Noroeste 14 Noroeste 0 -- -- 88
2020-08-23 02:00:00 21.3 5 Noroeste 10 Noroeste 0 -- -- 85
2020-08-23 01:00:00 21.6 5 Noroeste 8 Noroeste 0 -- -- 84
2020-08-23 00:00:00 22.2 0 Calma 10 Noroeste 0 -- -- 81
2020-08-22 23:00:00 22.4 5 Noroeste 12 Noroeste 0 -- -- 81
2020-08-22 22:00:00 22.9 8 Noroeste 13 Noroeste 0 -- -- 80
2020-08-22 21:00:00 24.4 5 Noroeste 10 Norte 0 -- -- 72
2020-08-22 20:00:00 26.1 6 Noroeste 18 Norte 0 -- -- 66
2020-08-22 19:00:00 28 8 Norte 21 Norte 0 -- -- 59
2020-08-22 18:00:00 29.8 11 Nordeste 20 Nordeste 0 -- -- 53
2020-08-22 17:00:00 31.1 11 Norte 21 Nordeste 0 -- -- 49
2020-08-22 16:00:00 32.4 14 Norte 25 Noroeste 0 -- -- 45
2020-08-22 15:00:00 32.1 13 Nordeste 31 Nordeste 0 -- -- 44
2020-08-22 14:00:00 32.1 18 Nordeste 38 Este 0 -- -- 36
2020-08-22 13:00:00 31.8 21 Nordeste 36 Nordeste 0 -- -- 33
2020-08-22 12:00:00 30.5 22 Nordeste 39 Este 0 -- -- 34
2020-08-22 11:00:00 29.5 21 Nordeste 38 Nordeste 0 -- -- 32
2020-08-22 10:00:00 27.8 20 Este 35 Nordeste 0 -- -- 33
2020-08-22 09:00:00 24.5 13 Este 23 Este 0 -- -- 44
2020-08-22 08:00:00 20.1 5 Sudeste 9 Sudeste 0 -- -- 90
2020-08-22 07:00:00 19.5 6 Sudoeste 9 Sudoeste 0 -- -- 90
2020-08-22 06:00:00 19.5 4 Sur 11 Sudoeste 0 -- -- 89
2020-08-22 05:00:00 19.9 3 Oeste 9 Sur 0 -- -- 90
2020-08-22 04:00:00 20 6 Noroeste 11 Norte 0 -- -- 91
2020-08-22 03:00:00 19.9 2 Oeste 6 Noroeste 0 -- -- 87
2020-08-22 02:00:00 20.5 3 Noroeste 9 Nordeste 0 -- -- 87
2020-08-22 01:00:00 20.8 2 Noroeste 14 Norte 0 -- -- 86
2020-08-22 00:00:00 21 9 Norte 21 Norte 0 -- -- 89